createdAt,value
2023-10-19T00:03:34.849Z,20.50
2023-10-19T00:08:45.405Z,22.73
2023-10-19T00:13:46.971Z,27.00
2023-10-19T00:18:49.537Z,24.08
2023-10-19T00:23:59.457Z,21.08
2023-10-19T00:29:15.431Z,17.17
2023-10-19T00:34:17.022Z,17.67
2023-10-19T00:39:28.520Z,17.25
2023-10-19T00:44:42.079Z,15.02
2023-10-19T00:49:45.276Z,18.15
2023-10-19T00:54:51.876Z,15.98
2023-10-19T01:00:01.940Z,15.00
2023-10-19T01:05:06.509Z,13.57
2023-10-19T01:10:09.542Z,16.77
2023-10-19T01:15:16.175Z,15.20
2023-10-19T01:20:35.327Z,15.57
2023-10-19T01:25:51.009Z,17.85
2023-10-19T01:30:53.367Z,12.98
2023-10-19T01:36:13.309Z,17.10
2023-10-19T01:41:17.023Z,18.02
2023-10-19T01:46:37.863Z,14.27
2023-10-19T01:51:39.931Z,23.17
2023-10-19T01:56:44.191Z,24.15
2023-10-19T02:01:47.153Z,17.38
2023-10-19T02:06:50.118Z,19.92
2023-10-19T02:11:54.494Z,20.55
2023-10-19T02:16:58.136Z,24.73
2023-10-19T02:22:04.915Z,33.25
2023-10-19T02:27:09.118Z,29.42
2023-10-19T02:32:13.088Z,30.77
2023-10-19T02:37:15.273Z,46.38
2023-10-19T02:42:18.589Z,44.53
2023-10-19T02:47:20.217Z,38.95
2023-10-19T02:52:21.893Z,47.80
2023-10-19T02:57:23.423Z,39.97
2023-10-19T03:02:27.215Z,53.13
2023-10-19T03:07:28.877Z,45.92
2023-10-19T03:12:31.858Z,71.95
2023-10-19T03:17:33.641Z,77.10
2023-10-19T03:22:35.983Z,69.32
2023-10-19T03:27:37.698Z,110.63
2023-10-19T03:32:42.241Z,104.70
2023-10-19T03:37:43.930Z,123.05
2023-10-19T03:42:48.025Z,133.65
2023-10-19T03:47:51.214Z,133.95
2023-10-19T03:52:53.210Z,121.03
2023-10-19T03:57:57.970Z,135.43
2023-10-19T04:03:00.198Z,113.50
2023-10-19T04:08:06.738Z,139.02
2023-10-19T04:13:14.006Z,125.28
2023-10-19T04:23:19.258Z,161.02
2023-10-19T04:28:31.492Z,114.53
2023-10-19T04:33:35.185Z,139.10
2023-10-19T04:38:38.047Z,118.18
2023-10-19T04:43:40.906Z,148.63
2023-10-19T04:48:43.465Z,130.20
2023-10-19T04:53:45.192Z,112.65
2023-10-19T04:58:48.222Z,145.93
2023-10-19T05:03:49.919Z,121.28
2023-10-19T05:08:53.276Z,219.77
2023-10-19T05:13:54.927Z,146.35
2023-10-19T05:18:56.546Z,136.25
2023-10-19T05:23:58.228Z,133.77
2023-10-19T05:28:59.982Z,117.05
2023-10-19T05:34:02.056Z,93.32
2023-10-19T05:39:05.299Z,116.57
2023-10-19T05:44:06.827Z,100.30
2023-10-19T05:49:09.074Z,106.43
2023-10-19T05:54:10.739Z,92.57
2023-10-19T05:59:12.456Z,66.22
2023-10-19T06:04:14.357Z,89.72
2023-10-19T06:09:16.804Z,66.15
2023-10-19T06:14:18.727Z,57.33
2023-10-19T06:19:20.331Z,54.33
2023-10-19T06:24:21.884Z,56.72
2023-10-19T06:29:28.342Z,46.83
2023-10-19T06:34:30.487Z,54.35
2023-10-19T06:39:32.184Z,64.50
2023-10-19T06:44:33.899Z,44.75
2023-10-19T06:49:35.488Z,44.00
2023-10-19T06:54:37.037Z,43.63
2023-10-19T06:59:38.624Z,25.83
2023-10-19T07:04:40.189Z,37.75
2023-10-19T07:09:42.353Z,26.00
2023-10-19T07:14:43.917Z,25.70
2023-10-19T07:19:46.260Z,19.98
2023-10-19T07:24:48.282Z,21.00
2023-10-19T07:29:50.951Z,17.25
2023-10-19T07:34:52.634Z,14.50
2023-10-19T07:39:58.030Z,15.38
2023-10-19T07:45:00.636Z,16.00
2023-10-19T07:50:04.311Z,22.17
2023-10-19T07:55:08.065Z,13.63
2023-10-19T08:00:11.172Z,12.05
2023-10-19T08:05:16.802Z,15.65
2023-10-19T08:10:21.248Z,20.02
2023-10-19T08:15:23.088Z,12.65
2023-10-19T08:20:25.376Z,15.48
2023-10-19T08:25:44.305Z,22.67
2023-10-19T08:30:58.655Z,13.57
2023-10-19T08:36:01.500Z,15.82
2023-10-19T08:41:03.729Z,15.65
2023-10-19T08:46:06.846Z,9.68
2023-10-19T08:51:11.826Z,16.75
2023-10-19T08:56:14.437Z,14.23
2023-10-19T09:01:16.597Z,10.77
2023-10-19T09:06:18.353Z,18.75
2023-10-19T09:11:21.680Z,12.90
2023-10-19T09:16:23.742Z,15.43
2023-10-19T09:21:25.342Z,15.30
2023-10-19T09:26:27.024Z,11.30
2023-10-19T09:31:28.735Z,12.52
2023-10-19T09:36:31.125Z,14.35
2023-10-19T09:41:34.183Z,15.18
2023-10-19T09:46:42.030Z,15.80
2023-10-19T09:51:55.199Z,16.20
2023-10-19T09:57:18.916Z,13.00
2023-10-19T10:02:26.397Z,17.05
2023-10-19T10:07:41.484Z,10.77
2023-10-19T10:12:43.965Z,14.90
2023-10-19T10:17:51.343Z,12.95
2023-10-19T10:28:16.024Z,9.70
2023-10-19T10:33:52.406Z,15.30
2023-10-19T10:39:06.329Z,20.45
2023-10-19T10:44:07.969Z,12.00
2023-10-19T10:49:10.529Z,16.50
2023-10-19T10:54:14.852Z,13.15
2023-10-19T10:59:16.413Z,18.20
2023-10-19T11:04:20.670Z,13.77
2023-10-19T11:09:25.723Z,16.33
2023-10-19T11:14:27.286Z,18.35
2023-10-19T11:19:41.324Z,14.45
2023-10-19T11:24:43.247Z,16.83
2023-10-19T11:30:06.291Z,13.65
2023-10-19T11:35:08.417Z,19.55
2023-10-19T11:40:11.461Z,19.75
2023-10-19T11:45:12.979Z,25.92
2023-10-19T11:50:16.319Z,16.70
2023-10-19T11:55:17.870Z,18.30
2023-10-19T12:00:35.292Z,22.65
2023-10-19T12:05:38.357Z,20.67
2023-10-19T12:10:39.963Z,19.98
2023-10-19T12:15:42.216Z,29.88
2023-10-19T12:20:46.591Z,23.02
2023-10-19T12:25:57.346Z,22.17
2023-10-19T12:30:59.558Z,26.25
2023-10-19T12:36:01.349Z,21.45
2023-10-19T12:41:03.953Z,24.30
2023-10-19T12:46:09.532Z,17.92
2023-10-19T12:51:14.629Z,22.10
2023-10-19T12:56:18.029Z,19.50
2023-10-19T13:01:20.725Z,20.65
2023-10-19T13:06:25.270Z,21.33
2023-10-19T13:11:28.882Z,18.70
2023-10-19T13:16:32.354Z,23.08
2023-10-19T13:21:34.401Z,20.95
2023-10-19T13:26:36.889Z,16.70
2023-10-19T13:31:38.915Z,19.95
2023-10-19T13:36:40.630Z,17.83
2023-10-19T13:41:42.869Z,20.73
2023-10-19T13:46:44.549Z,23.67
2023-10-19T13:51:46.112Z,18.60
2023-10-19T13:56:47.664Z,16.85
2023-10-19T14:01:49.313Z,18.48
2023-10-19T14:06:52.018Z,20.25
2023-10-19T14:11:54.280Z,24.90
2023-10-19T14:16:55.805Z,18.70
2023-10-19T14:21:57.446Z,19.73
2023-10-19T14:27:01.056Z,24.30
2023-10-19T14:32:04.231Z,20.55
2023-10-19T14:37:05.807Z,21.40
2023-10-19T14:42:08.182Z,25.90
2023-10-19T14:47:10.452Z,23.02
2023-10-19T14:52:13.432Z,24.10
2023-10-19T14:57:15.034Z,22.02
2023-10-19T15:02:18.767Z,23.17
2023-10-19T15:07:20.403Z,18.75
2023-10-19T15:12:22.236Z,20.85
2023-10-19T15:17:23.757Z,20.42
2023-10-19T15:22:25.431Z,21.15
2023-10-19T15:27:27.354Z,17.33
2023-10-19T15:32:32.208Z,22.92
2023-10-19T15:37:33.893Z,24.48
2023-10-19T15:42:37.219Z,27.33
2023-10-19T15:47:41.338Z,31.33
2023-10-19T15:52:46.114Z,24.98
2023-10-19T15:57:47.873Z,23.17
2023-10-19T16:02:51.782Z,20.80
2023-10-19T16:07:53.696Z,26.33
2023-10-19T16:12:55.322Z,20.27
2023-10-19T16:17:57.642Z,25.33
2023-10-19T16:23:00.191Z,23.92
2023-10-19T16:28:02.156Z,23.23
2023-10-19T16:33:03.929Z,23.85
2023-10-19T16:38:05.552Z,27.88
2023-10-19T16:43:10.856Z,27.83
2023-10-19T16:48:14.028Z,31.65
2023-10-19T16:53:15.801Z,42.60
2023-10-19T16:58:17.437Z,41.60
2023-10-19T17:03:19.354Z,46.85
2023-10-19T17:08:20.975Z,54.67
2023-10-19T17:13:22.546Z,46.97
2023-10-19T17:18:24.432Z,57.10
2023-10-19T17:23:26.057Z,56.17
2023-10-19T17:28:27.930Z,58.90
2023-10-19T17:33:32.299Z,49.28
2023-10-19T17:38:34.276Z,60.17
2023-10-19T17:43:35.926Z,69.35
2023-10-19T17:48:37.625Z,59.83
2023-10-19T17:53:40.295Z,82.75
2023-10-19T17:58:41.859Z,77.72
2023-10-19T18:03:43.654Z,71.57
2023-10-19T18:08:45.319Z,80.57
2023-10-19T18:13:47.279Z,81.93
2023-10-19T18:18:49.220Z,91.15
2023-10-19T18:23:50.789Z,83.75
2023-10-19T18:28:52.691Z,101.90
2023-10-19T18:33:54.272Z,95.72
2023-10-19T18:38:56.079Z,96.53
2023-10-19T18:43:59.861Z,85.78
2023-10-19T18:49:01.438Z,104.30
2023-10-19T18:54:06.277Z,72.38
2023-10-19T18:59:07.921Z,81.05
2023-10-19T19:04:10.258Z,81.10
2023-10-19T19:09:13.142Z,69.93
2023-10-19T19:14:14.744Z,68.90
2023-10-19T19:19:16.346Z,88.80
2023-10-19T19:24:17.896Z,84.95
2023-10-19T19:29:21.624Z,88.97
2023-10-19T19:34:23.244Z,88.57
2023-10-19T19:39:25.895Z,70.25
2023-10-19T19:44:27.535Z,69.03
2023-10-19T19:49:29.166Z,80.80
2023-10-19T19:54:30.993Z,89.30
2023-10-19T19:59:32.975Z,109.90
2023-10-19T20:04:34.740Z,124.78
2023-10-19T20:09:36.946Z,142.77
2023-10-19T20:14:40.107Z,111.55
2023-10-19T20:19:42.316Z,133.98
2023-10-19T20:24:43.913Z,124.22
2023-10-19T20:29:45.474Z,116.82
2023-10-19T20:34:47.024Z,117.47
2023-10-19T20:39:49.205Z,98.00
2023-10-19T20:44:50.798Z,90.13
2023-10-19T20:49:52.339Z,102.30
2023-10-19T20:54:53.967Z,95.57
2023-10-19T20:59:57.831Z,93.90
2023-10-19T21:04:59.493Z,104.57
2023-10-19T21:10:01.117Z,122.30
2023-10-19T21:15:02.701Z,101.72
2023-10-19T21:20:06.842Z,108.72
2023-10-19T21:25:11.344Z,93.55
2023-10-19T21:30:16.661Z,94.05
2023-10-19T21:35:18.318Z,90.00
2023-10-19T21:40:19.928Z,78.43
2023-10-19T21:45:21.766Z,72.15
2023-10-19T21:50:23.393Z,58.97
2023-10-19T21:55:25.261Z,66.15
2023-10-19T22:00:27.896Z,63.03
2023-10-19T22:05:29.654Z,58.75
2023-10-19T22:10:33.834Z,56.25
2023-10-19T22:15:35.430Z,48.70
2023-10-19T22:20:37.671Z,51.60
2023-10-19T22:25:39.982Z,45.13
2023-10-19T22:30:43.060Z,47.78
2023-10-19T22:35:46.078Z,44.33
2023-10-19T22:40:48.632Z,44.50
2023-10-19T22:45:52.204Z,45.78
2023-10-19T22:50:53.951Z,42.42
2023-10-19T22:55:55.604Z,43.95
2023-10-19T23:00:57.466Z,55.28
2023-10-19T23:05:59.108Z,52.30
2023-10-19T23:11:00.728Z,42.58
2023-10-19T23:16:02.455Z,40.65
2023-10-19T23:21:05.170Z,47.97
2023-10-19T23:26:08.197Z,43.05
2023-10-19T23:31:10.023Z,42.45
2023-10-19T23:36:11.558Z,45.05
2023-10-19T23:41:13.140Z,43.20
2023-10-19T23:46:14.764Z,51.58
2023-10-19T23:51:16.297Z,48.85
2023-10-19T23:56:17.846Z,42.05
